sensor_id;sensor_type;location;lat;lon;timestamp;pressure;altitude;pressure_sealevel;temperature;humidity
21879;BME280;27908;42.708;23.278;2023-03-25T00:00:07;63285.38;;;7.50;100.00
21879;BME280;27908;42.708;23.278;2023-03-25T00:02:42;63254.91;;;7.45;100.00
21879;BME280;27908;42.708;23.278;2023-03-25T00:05:09;63249.38;;;7.50;100.00
21879;BME280;27908;42.708;23.278;2023-03-25T00:07:35;63272.66;;;7.48;100.00
21879;BME280;27908;42.708;23.278;2023-03-25T00:10:01;63293.53;;;7.56;100.00
21879;BME280;27908;42.708;23.278;2023-03-25T00:12:26;63249.00;;;7.62;100.00
21879;BME280;27908;42.708;23.278;2023-03-25T00:14:51;63250.03;;;7.63;100.00
21879;BME280;27908;42.708;23.278;2023-03-25T00:17:23;63249.34;;;7.47;100.00
21879;BME280;27908;42.708;23.278;2023-03-25T00:19:56;63256.53;;;7.54;100.00
21879;BME280;27908;42.708;23.278;2023-03-25T00:22:22;63296.50;;;7.49;100.00
21879;BME280;27908;42.708;23.278;2023-03-25T00:24:48;63273.84;;;7.61;100.00
21879;BME280;27908;42.708;23.278;2023-03-25T00:27:14;63292.16;;;7.67;100.00
21879;BME280;27908;42.708;23.278;2023-03-25T00:29:44;63263.75;;;7.66;100.00
21879;BME280;27908;42.708;23.278;2023-03-25T00:32:12;63276.84;;;7.59;100.00
21879;BME280;27908;42.708;23.278;2023-03-25T00:34:38;63275.91;;;7.66;100.00
21879;BME280;27908;42.708;23.278;2023-03-25T00:37:12;63266.13;;;7.54;100.00
21879;BME280;27908;42.708;23.278;2023-03-25T00:39:37;63206.22;;;7.45;100.00
21879;BME280;27908;42.708;23.278;2023-03-25T00:42:03;63250.38;;;7.48;100.00
21879;BME280;27908;42.708;23.278;2023-03-25T00:44:29;63248.22;;;7.37;100.00
21879;BME280;27908;42.708;23.278;2023-03-25T00:46:55;63258.88;;;7.40;100.00
21879;BME280;27908;42.708;23.278;2023-03-25T00:49:21;63251.25;;;7.37;100.00
21879;BME280;27908;42.708;23.278;2023-03-25T00:51:50;63265.53;;;7.46;100.00
21879;BME280;27908;42.708;23.278;2023-03-25T00:54:16;63250.31;;;7.43;100.00
21879;BME280;27908;42.708;23.278;2023-03-25T00:56:42;63216.75;;;7.33;100.00
21879;BME280;27908;42.708;23.278;2023-03-25T00:59:08;63241.63;;;7.38;100.00
21879;BME280;27908;42.708;23.278;2023-03-25T01:01:33;63242.16;;;7.38;100.00
21879;BME280;27908;42.708;23.278;2023-03-25T01:04:03;63278.66;;;7.39;100.00
21879;BME280;27908;42.708;23.278;2023-03-25T01:06:32;63235.53;;;7.37;100.00
21879;BME280;27908;42.708;23.278;2023-03-25T01:09:02;63254.91;;;7.45;100.00
21879;BME280;27908;42.708;23.278;2023-03-25T01:11:30;63273.75;;;7.54;100.00
21879;BME280;27908;42.708;23.278;2023-03-25T01:13:58;63290.00;;;7.55;100.00
21879;BME280;27908;42.708;23.278;2023-03-25T01:16:24;63264.56;;;7.50;100.00
21879;BME280;27908;42.708;23.278;2023-03-25T01:18:50;63270.13;;;7.48;100.00
21879;BME280;27908;42.708;23.278;2023-03-25T01:21:16;63242.78;;;7.51;100.00
21879;BME280;27908;42.708;23.278;2023-03-25T01:23:41;63272.66;;;7.48;100.00
21879;BME280;27908;42.708;23.278;2023-03-25T01:26:07;63229.41;;;7.33;100.00
21879;BME280;27908;42.708;23.278;2023-03-25T01:28:32;63253.34;;;7.42;100.00
21879;BME280;27908;42.708;23.278;2023-03-25T01:31:03;63228.56;;;7.47;100.00
21879;BME280;27908;42.708;23.278;2023-03-25T01:33:29;63254.22;;;7.30;100.00
21879;BME280;27908;42.708;23.278;2023-03-25T01:35:54;63218.19;;;7.25;100.00
21879;BME280;27908;42.708;23.278;2023-03-25T01:38:20;63236.97;;;7.28;100.00
21879;BME280;27908;42.708;23.278;2023-03-25T01:40:45;63232.91;;;7.29;100.00
21879;BME280;27908;42.708;23.278;2023-03-25T01:43:11;63200.47;;;7.27;100.00
21879;BME280;27908;42.708;23.278;2023-03-25T01:45:38;63211.69;;;7.33;100.00
21879;BME280;27908;42.708;23.278;2023-03-25T01:48:09;63228.44;;;7.37;100.00
21879;BME280;27908;42.708;23.278;2023-03-25T01:50:41;63266.47;;;7.37;100.00
21879;BME280;27908;42.708;23.278;2023-03-25T01:53:08;63287.69;;;7.33;100.00
21879;BME280;27908;42.708;23.278;2023-03-25T01:55:35;63258.25;;;7.29;100.00
21879;BME280;27908;42.708;23.278;2023-03-25T01:58:04;63234.34;;;7.21;100.00
21879;BME280;27908;42.708;23.278;2023-03-25T02:00:32;63221.72;;;7.26;100.00
21879;BME280;27908;42.708;23.278;2023-03-25T02:02:58;63225.78;;;7.25;100.00
21879;BME280;27908;42.708;23.278;2023-03-25T02:05:41;63223.28;;;7.27;100.00
21879;BME280;27908;42.708;23.278;2023-03-25T02:08:08;63168.25;;;6.99;100.00
21879;BME280;27908;42.708;23.278;2023-03-25T02:10:35;63221.97;;;7.02;100.00
21879;BME280;27908;42.708;23.278;2023-03-25T02:13:02;63173.22;;;6.91;100.00
21879;BME280;27908;42.708;23.278;2023-03-25T02:15:51;63132.56;;;6.76;100.00
21879;BME280;27908;42.708;23.278;2023-03-25T02:27:23;63165.78;;;6.60;100.00
21879;BME280;27908;42.708;23.278;2023-03-25T02:32:33;63111.06;;;6.12;100.00
21879;BME280;27908;42.708;23.278;2023-03-25T02:40:21;63112.63;;;6.16;100.00
21879;BME280;27908;42.708;23.278;2023-03-25T02:42:54;63081.13;;;6.03;100.00
21879;BME280;27908;42.708;23.278;2023-03-25T02:45:33;63071.09;;;6.10;100.00
21879;BME280;27908;42.708;23.278;2023-03-25T02:50:54;63090.22;;;6.02;100.00
21879;BME280;27908;42.708;23.278;2023-03-25T02:53:29;63100.41;;;6.06;100.00
21879;BME280;27908;42.708;23.278;2023-03-25T02:56:05;63066.31;;;5.88;100.00
21879;BME280;27908;42.708;23.278;2023-03-25T02:58:34;63019.50;;;5.65;100.00
21879;BME280;27908;42.708;23.278;2023-03-25T03:01:00;63055.50;;;5.73;100.00
21879;BME280;27908;42.708;23.278;2023-03-25T03:03:26;63044.28;;;5.67;100.00
21879;BME280;27908;42.708;23.278;2023-03-25T03:05:58;63021.50;;;5.65;100.00
21879;BME280;27908;42.708;23.278;2023-03-25T03:11:17;63027.91;;;5.49;100.00
21879;BME280;27908;42.708;23.278;2023-03-25T03:14:21;63026.19;;;5.32;100.00
21879;BME280;27908;42.708;23.278;2023-03-25T03:20:01;63025.84;;;5.47;100.00
21879;BME280;27908;42.708;23.278;2023-03-25T03:28:06;62989.00;;;5.50;100.00
21879;BME280;27908;42.708;23.278;2023-03-25T03:30:47;63023.91;;;5.52;100.00
21879;BME280;27908;42.708;23.278;2023-03-25T03:33:22;63026.97;;;5.55;100.00
21879;BME280;27908;42.708;23.278;2023-03-25T03:38:24;63056.81;;;5.60;100.00
21879;BME280;27908;42.708;23.278;2023-03-25T03:40:54;63033.38;;;5.42;100.00
21879;BME280;27908;42.708;23.278;2023-03-25T03:43:32;63037.41;;;5.41;100.00
21879;BME280;27908;42.708;23.278;2023-03-25T03:46:02;62990.41;;;5.39;100.00
21879;BME280;27908;42.708;23.278;2023-03-25T03:48:53;63000.56;;;5.44;100.00
21879;BME280;27908;42.708;23.278;2023-03-25T03:51:36;63079.72;;;5.33;100.00
21879;BME280;27908;42.708;23.278;2023-03-25T03:57:12;62986.69;;;5.24;100.00
21879;BME280;27908;42.708;23.278;2023-03-25T04:00:01;62969.81;;;5.07;100.00
21879;BME280;27908;42.708;23.278;2023-03-25T04:02:49;62993.16;;;5.15;100.00
21879;BME280;27908;42.708;23.278;2023-03-25T04:05:19;62970.72;;;4.98;100.00
21879;BME280;27908;42.708;23.278;2023-03-25T04:07:53;62968.31;;;5.08;100.00
21879;BME280;27908;42.708;23.278;2023-03-25T04:10:38;62945.53;;;5.03;100.00
21879;BME280;27908;42.708;23.278;2023-03-25T04:13:08;62978.59;;;5.23;100.00
21879;BME280;27908;42.708;23.278;2023-03-25T04:15:36;62952.19;;;5.12;100.00
21879;BME280;27908;42.708;23.278;2023-03-25T04:18:02;62976.97;;;5.14;100.00
21879;BME280;27908;42.708;23.278;2023-03-25T04:20:31;62973.38;;;5.11;100.00
21879;BME280;27908;42.708;23.278;2023-03-25T04:22:59;62940.13;;;5.15;100.00
21879;BME280;27908;42.708;23.278;2023-03-25T04:25:24;62965.84;;;5.13;100.00
21879;BME280;27908;42.708;23.278;2023-03-25T04:27:50;62998.59;;;5.08;100.00
21879;BME280;27908;42.708;23.278;2023-03-25T04:30:18;62972.38;;;5.10;100.00
21879;BME280;27908;42.708;23.278;2023-03-25T04:32:47;62967.75;;;5.03;100.00
21879;BME280;27908;42.708;23.278;2023-03-25T04:35:13;62963.56;;;4.92;100.00
21879;BME280;27908;42.708;23.278;2023-03-25T04:37:39;62955.63;;;5.01;100.00
21879;BME280;27908;42.708;23.278;2023-03-25T04:40:07;62972.28;;;5.02;100.00
21879;BME280;27908;42.708;23.278;2023-03-25T04:42:33;62962.16;;;5.00;100.00
21879;BME280;27908;42.708;23.278;2023-03-25T04:45:03;62997.06;;;5.07;100.00
21879;BME280;27908;42.708;23.278;2023-03-25T04:47:28;62994.09;;;5.11;100.00
21879;BME280;27908;42.708;23.278;2023-03-25T04:49:54;62989.00;;;5.09;100.00
21879;BME280;27908;42.708;23.278;2023-03-25T04:52:19;62964.31;;;5.12;100.00
21879;BME280;27908;42.708;23.278;2023-03-25T04:54:45;62977.56;;;5.22;100.00
21879;BME280;27908;42.708;23.278;2023-03-25T04:57:10;62991.31;;;5.30;100.00
21879;BME280;27908;42.708;23.278;2023-03-25T04:59:36;63012.63;;;5.39;100.00
21879;BME280;27908;42.708;23.278;2023-03-25T05:02:02;63035.00;;;5.51;100.00
21879;BME280;27908;42.708;23.278;2023-03-25T05:04:30;62988.69;;;5.67;100.00
21879;BME280;27908;42.708;23.278;2023-03-25T05:06:55;63071.28;;;5.83;100.00
21879;BME280;27908;42.708;23.278;2023-03-25T05:09:21;63069.34;;;5.91;100.00
21879;BME280;27908;42.708;23.278;2023-03-25T05:11:48;63088.19;;;6.02;100.00
21879;BME280;27908;42.708;23.278;2023-03-25T05:14:16;63093.31;;;6.07;100.00
21879;BME280;27908;42.708;23.278;2023-03-25T05:16:42;63116.25;;;6.22;100.00
21879;BME280;27908;42.708;23.278;2023-03-25T05:19:08;63110.38;;;6.38;100.00
21879;BME280;27908;42.708;23.278;2023-03-25T05:21:35;63125.63;;;6.45;100.00
21879;BME280;27908;42.708;23.278;2023-03-25T05:24:02;63150.13;;;6.64;100.00
21879;BME280;27908;42.708;23.278;2023-03-25T05:26:28;63197.44;;;6.83;100.00
21879;BME280;27908;42.708;23.278;2023-03-25T05:29:00;63187.03;;;7.02;100.00
21879;BME280;27908;42.708;23.278;2023-03-25T05:31:26;63236.84;;;7.18;100.00
21879;BME280;27908;42.708;23.278;2023-03-25T05:33:51;63219.16;;;7.23;100.00
21879;BME280;27908;42.708;23.278;2023-03-25T05:36:19;63245.72;;;7.42;100.00
21879;BME280;27908;42.708;23.278;2023-03-25T05:38:45;63280.88;;;7.56;100.00
21879;BME280;27908;42.708;23.278;2023-03-25T05:41:14;63287.13;;;7.72;100.00
21879;BME280;27908;42.708;23.278;2023-03-25T05:43:43;63286.25;;;7.83;100.00
21879;BME280;27908;42.708;23.278;2023-03-25T05:46:13;63374.19;;;7.99;100.00
21879;BME280;27908;42.708;23.278;2023-03-25T05:48:39;63326.13;;;8.09;100.00
21879;BME280;27908;42.708;23.278;2023-03-25T05:51:10;63345.72;;;8.40;100.00
21879;BME280;27908;42.708;23.278;2023-03-25T05:53:44;63384.41;;;8.48;100.00
21879;BME280;27908;42.708;23.278;2023-03-25T05:56:17;63400.28;;;8.61;100.00
21879;BME280;27908;42.708;23.278;2023-03-25T05:58:44;63414.19;;;8.79;100.00
21879;BME280;27908;42.708;23.278;2023-03-25T06:01:10;63424.50;;;8.94;100.00
21879;BME280;27908;42.708;23.278;2023-03-25T06:03:40;63430.69;;;9.02;100.00
21879;BME280;27908;42.708;23.278;2023-03-25T06:06:10;63495.00;;;9.27;100.00
21879;BME280;27908;42.708;23.278;2023-03-25T06:08:42;63551.56;;;9.35;100.00
21879;BME280;27908;42.708;23.278;2023-03-25T06:11:10;63525.31;;;9.54;100.00
21879;BME280;27908;42.708;23.278;2023-03-25T06:13:40;63540.19;;;9.66;100.00
21879;BME280;27908;42.708;23.278;2023-03-25T06:16:07;63538.28;;;9.81;98.08
21879;BME280;27908;42.708;23.278;2023-03-25T06:18:33;63562.25;;;9.85;96.51
21879;BME280;27908;42.708;23.278;2023-03-25T06:20:59;63586.97;;;10.08;96.59
21879;BME280;27908;42.708;23.278;2023-03-25T06:23:24;63606.41;;;10.20;93.92
21879;BME280;27908;42.708;23.278;2023-03-25T06:25:51;63631.53;;;10.34;94.82
21879;BME280;27908;42.708;23.278;2023-03-25T06:28:17;63652.09;;;10.51;92.83
21879;BME280;27908;42.708;23.278;2023-03-25T06:30:47;63650.66;;;10.62;93.19
21879;BME280;27908;42.708;23.278;2023-03-25T06:33:14;63665.59;;;10.76;92.86
21879;BME280;27908;42.708;23.278;2023-03-25T06:35:40;63711.09;;;10.91;93.35
21879;BME280;27908;42.708;23.278;2023-03-25T06:38:08;63740.78;;;11.00;92.27
21879;BME280;27908;42.708;23.278;2023-03-25T06:40:37;63727.59;;;11.09;93.20
21879;BME280;27908;42.708;23.278;2023-03-25T06:43:03;63731.78;;;11.15;92.25
21879;BME280;27908;42.708;23.278;2023-03-25T06:45:29;63707.28;;;11.16;91.19
21879;BME280;27908;42.708;23.278;2023-03-25T06:47:55;63741.94;;;11.13;91.95
21879;BME280;27908;42.708;23.278;2023-03-25T06:50:20;63743.59;;;11.24;91.41
21879;BME280;27908;42.708;23.278;2023-03-25T06:52:46;63754.88;;;11.33;91.83
21879;BME280;27908;42.708;23.278;2023-03-25T06:55:11;63796.28;;;11.38;89.84
21879;BME280;27908;42.708;23.278;2023-03-25T06:57:37;63807.66;;;11.51;90.54
21879;BME280;27908;42.708;23.278;2023-03-25T07:00:03;63789.38;;;11.61;90.08
21879;BME280;27908;42.708;23.278;2023-03-25T07:02:30;63861.97;;;11.69;90.12
21879;BME280;27908;42.708;23.278;2023-03-25T07:04:55;63838.09;;;11.80;89.08
21879;BME280;27908;42.708;23.278;2023-03-25T07:07:21;63857.53;;;11.84;87.09
21879;BME280;27908;42.708;23.278;2023-03-25T07:09:50;63862.19;;;11.91;86.14
21879;BME280;27908;42.708;23.278;2023-03-25T07:12:15;63861.31;;;12.05;86.05
21879;BME280;27908;42.708;23.278;2023-03-25T07:14:41;63892.19;;;12.25;88.32
21879;BME280;27908;42.708;23.278;2023-03-25T07:17:08;63913.22;;;12.35;87.23
21879;BME280;27908;42.708;23.278;2023-03-25T07:19:33;63921.53;;;12.48;87.27
21879;BME280;27908;42.708;23.278;2023-03-25T07:21:59;63940.00;;;12.53;83.41
21879;BME280;27908;42.708;23.278;2023-03-25T07:24:24;63950.22;;;12.53;82.63
21879;BME280;27908;42.708;23.278;2023-03-25T07:26:50;63942.97;;;12.44;82.64
21879;BME280;27908;42.708;23.278;2023-03-25T07:29:15;63988.78;;;12.73;84.30
21879;BME280;27908;42.708;23.278;2023-03-25T07:31:41;63982.78;;;12.87;82.63
21879;BME280;27908;42.708;23.278;2023-03-25T07:34:06;63994.28;;;13.10;82.88
21879;BME280;27908;42.708;23.278;2023-03-25T07:36:32;64066.00;;;13.17;80.52
21879;BME280;27908;42.708;23.278;2023-03-25T07:38:58;64087.75;;;13.41;81.63
21879;BME280;27908;42.708;23.278;2023-03-25T07:41:23;64091.47;;;13.56;79.57
21879;BME280;27908;42.708;23.278;2023-03-25T07:43:49;64145.75;;;13.54;79.59
21879;BME280;27908;42.708;23.278;2023-03-25T07:46:14;64081.91;;;13.72;78.67
21879;BME280;27908;42.708;23.278;2023-03-25T07:48:40;64183.16;;;14.00;78.66
21879;BME280;27908;42.708;23.278;2023-03-25T07:51:06;64166.97;;;14.21;79.26
21879;BME280;27908;42.708;23.278;2023-03-25T07:53:32;64207.06;;;14.32;76.69
21879;BME280;27908;42.708;23.278;2023-03-25T07:55:58;64209.31;;;14.52;75.06
21879;BME280;27908;42.708;23.278;2023-03-25T07:58:23;64277.22;;;14.70;76.65
21879;BME280;27908;42.708;23.278;2023-03-25T08:00:49;64332.31;;;14.88;75.08
21879;BME280;27908;42.708;23.278;2023-03-25T08:03:14;64339.75;;;15.10;73.26
21879;BME280;27908;42.708;23.278;2023-03-25T08:05:47;64392.84;;;15.26;71.30
21879;BME280;27908;42.708;23.278;2023-03-25T08:08:13;64380.59;;;15.36;73.09
21879;BME280;27908;42.708;23.278;2023-03-25T08:10:41;64418.28;;;15.53;68.97
21879;BME280;27908;42.708;23.278;2023-03-25T08:13:07;64444.66;;;15.68;68.70
21879;BME280;27908;42.708;23.278;2023-03-25T08:15:34;64474.19;;;15.89;68.21
21879;BME280;27908;42.708;23.278;2023-03-25T08:17:59;64510.91;;;16.09;66.76
21879;BME280;27908;42.708;23.278;2023-03-25T08:20:26;64553.72;;;16.18;67.42
21879;BME280;27908;42.708;23.278;2023-03-25T08:22:51;64581.38;;;16.54;68.04
21879;BME280;27908;42.708;23.278;2023-03-25T08:25:16;64629.84;;;16.61;64.62
21879;BME280;27908;42.708;23.278;2023-03-25T08:27:42;64639.31;;;16.77;64.96
21879;BME280;27908;42.708;23.278;2023-03-25T08:30:08;64628.09;;;16.91;63.42
21879;BME280;27908;42.708;23.278;2023-03-25T08:32:35;64699.81;;;17.00;63.67
21879;BME280;27908;42.708;23.278;2023-03-25T08:35:04;64690.16;;;17.10;63.46
21879;BME280;27908;42.708;23.278;2023-03-25T08:37:30;64698.94;;;17.14;62.56
21879;BME280;27908;42.708;23.278;2023-03-25T08:40:03;64665.13;;;16.84;62.55
21879;BME280;27908;42.708;23.278;2023-03-25T08:42:34;64633.00;;;16.66;62.75
21879;BME280;27908;42.708;23.278;2023-03-25T08:44:59;64649.59;;;16.77;62.95
21879;BME280;27908;42.708;23.278;2023-03-25T08:47:24;64609.34;;;16.71;62.32
21879;BME280;27908;42.708;23.278;2023-03-25T08:49:50;64612.34;;;16.61;61.57
21879;BME280;27908;42.708;23.278;2023-03-25T08:52:15;64670.78;;;16.85;63.20
21879;BME280;27908;42.708;23.278;2023-03-25T08:54:41;64629.53;;;16.80;62.20
21879;BME280;27908;42.708;23.278;2023-03-25T08:57:06;64652.28;;;16.87;63.23
21879;BME280;27908;42.708;23.278;2023-03-25T08:59:32;64681.84;;;17.05;61.84
21879;BME280;27908;42.708;23.278;2023-03-25T09:01:58;64698.50;;;17.18;61.58
21879;BME280;27908;42.708;23.278;2023-03-25T09:04:23;64718.50;;;17.13;60.62
21879;BME280;27908;42.708;23.278;2023-03-25T09:06:49;64745.38;;;17.16;62.34
21879;BME280;27908;42.708;23.278;2023-03-25T09:09:16;64808.97;;;17.77;62.25
21879;BME280;27908;42.708;23.278;2023-03-25T09:11:42;64929.75;;;18.22;60.48
21879;BME280;27908;42.708;23.278;2023-03-25T09:14:08;64967.91;;;18.61;58.83
21879;BME280;27908;42.708;23.278;2023-03-25T09:16:33;64989.81;;;18.79;57.20
21879;BME280;27908;42.708;23.278;2023-03-25T09:18:59;65004.78;;;18.76;56.15
21879;BME280;27908;42.708;23.278;2023-03-25T09:21:25;65009.75;;;18.61;55.59
21879;BME280;27908;42.708;23.278;2023-03-25T09:23:50;65016.59;;;18.73;56.45
21879;BME280;27908;42.708;23.278;2023-03-25T09:26:16;64954.91;;;18.53;55.46
21879;BME280;27908;42.708;23.278;2023-03-25T09:28:41;64962.56;;;18.46;56.90
21879;BME280;27908;42.708;23.278;2023-03-25T09:31:07;64988.47;;;18.53;55.58
21879;BME280;27908;42.708;23.278;2023-03-25T09:33:34;64957.44;;;18.49;54.77
21879;BME280;27908;42.708;23.278;2023-03-25T09:36:00;64997.31;;;18.59;54.02
21879;BME280;27908;42.708;23.278;2023-03-25T09:38:26;65033.91;;;18.94;54.77
21879;BME280;27908;42.708;23.278;2023-03-25T09:40:51;65135.06;;;19.19;53.92
21879;BME280;27908;42.708;23.278;2023-03-25T09:46:02;65136.41;;;19.44;53.38
21879;BME280;27908;42.708;23.278;2023-03-25T09:56:05;65150.94;;;19.48;52.34
21879;BME280;27908;42.708;23.278;2023-03-25T09:58:43;65161.94;;;19.59;50.98
21879;BME280;27908;42.708;23.278;2023-03-25T10:06:25;65297.25;;;20.13;48.45
21879;BME280;27908;42.708;23.278;2023-03-25T10:12:01;65263.19;;;20.22;45.38
21879;BME280;27908;42.708;23.278;2023-03-25T10:22:52;65367.63;;;20.47;44.49
21879;BME280;27908;42.708;23.278;2023-03-25T10:25:24;65242.88;;;20.13;45.33
21879;BME280;27908;42.708;23.278;2023-03-25T10:27:51;65266.81;;;20.23;44.90
21879;BME280;27908;42.708;23.278;2023-03-25T10:30:33;65293.84;;;20.32;44.94
21879;BME280;27908;42.708;23.278;2023-03-25T10:33:07;65366.06;;;20.46;44.08
21879;BME280;27908;42.708;23.278;2023-03-25T10:35:39;65405.31;;;20.73;42.70
21879;BME280;27908;42.708;23.278;2023-03-25T10:38:24;65510.16;;;21.15;43.24
21879;BME280;27908;42.708;23.278;2023-03-25T10:40:57;65556.22;;;21.42;42.32
21879;BME280;27908;42.708;23.278;2023-03-25T10:43:33;65585.13;;;21.69;42.99
21879;BME280;27908;42.708;23.278;2023-03-25T10:48:40;65580.88;;;21.60;43.55
21879;BME280;27908;42.708;23.278;2023-03-25T10:51:09;65592.88;;;21.64;45.60
21879;BME280;27908;42.708;23.278;2023-03-25T10:53:36;65708.19;;;22.01;45.07
21879;BME280;27908;42.708;23.278;2023-03-25T10:56:14;65530.34;;;21.49;43.50
21879;BME280;27908;42.708;23.278;2023-03-25T10:58:44;65501.44;;;21.24;43.49
21879;BME280;27908;42.708;23.278;2023-03-25T11:01:19;65559.84;;;21.42;44.38
21879;BME280;27908;42.708;23.278;2023-03-25T11:03:49;65554.84;;;21.57;43.36
21879;BME280;27908;42.708;23.278;2023-03-25T11:06:27;65635.06;;;21.74;43.34
21879;BME280;27908;42.708;23.278;2023-03-25T11:11:30;65662.56;;;22.07;42.39
21879;BME280;27908;42.708;23.278;2023-03-25T11:13:57;65640.50;;;21.91;41.20
21879;BME280;27908;42.708;23.278;2023-03-25T11:16:22;65655.38;;;21.78;42.08
21879;BME280;27908;42.708;23.278;2023-03-25T11:18:50;65613.94;;;21.86;41.92
21879;BME280;27908;42.708;23.278;2023-03-25T11:21:17;65651.91;;;21.90;42.15
21879;BME280;27908;42.708;23.278;2023-03-25T11:23:47;65644.75;;;21.98;40.93
21879;BME280;27908;42.708;23.278;2023-03-25T11:26:21;65704.56;;;22.03;40.23
21879;BME280;27908;42.708;23.278;2023-03-25T11:28:50;65654.25;;;22.09;42.06
21879;BME280;27908;42.708;23.278;2023-03-25T11:34:01;65796.47;;;22.64;39.88
21879;BME280;27908;42.708;23.278;2023-03-25T11:36:29;65928.00;;;22.90;40.19
21879;BME280;27908;42.708;23.278;2023-03-25T11:39:00;65819.25;;;22.56;39.68
21879;BME280;27908;42.708;23.278;2023-03-25T11:41:33;65784.97;;;22.61;39.21
21879;BME280;27908;42.708;23.278;2023-03-25T11:44:01;65845.84;;;22.62;40.16
21879;BME280;27908;42.708;23.278;2023-03-25T11:46:27;65825.53;;;22.60;40.21
21879;BME280;27908;42.708;23.278;2023-03-25T11:48:53;65848.41;;;22.59;40.17
21879;BME280;27908;42.708;23.278;2023-03-25T11:51:24;65852.28;;;22.75;39.92
21879;BME280;27908;42.708;23.278;2023-03-25T11:53:58;65893.19;;;22.94;38.82
21879;BME280;27908;42.708;23.278;2023-03-25T11:56:34;65975.66;;;23.08;39.40
21879;BME280;27908;42.708;23.278;2023-03-25T11:59:01;65997.72;;;23.21;38.91
21879;BME280;27908;42.708;23.278;2023-03-25T12:01:35;65901.47;;;22.89;38.86
21879;BME280;27908;42.708;23.278;2023-03-25T12:04:20;65824.06;;;22.66;39.26
21879;BME280;27908;42.708;23.278;2023-03-25T12:07:18;65696.56;;;22.22;39.06
21879;BME280;27908;42.708;23.278;2023-03-25T12:09:53;65602.78;;;21.68;40.18
21879;BME280;27908;42.708;23.278;2023-03-25T12:15:07;65561.25;;;21.34;41.73
21879;BME280;27908;42.708;23.278;2023-03-25T12:26:06;65423.47;;;20.73;41.49
21879;BME280;27908;42.708;23.278;2023-03-25T12:28:48;65366.91;;;20.69;41.68
21879;BME280;27908;42.708;23.278;2023-03-25T12:31:47;65431.97;;;20.88;41.65
21879;BME280;27908;42.708;23.278;2023-03-25T12:34:33;65447.03;;;20.90;41.53
21879;BME280;27908;42.708;23.278;2023-03-25T12:50:44;65454.88;;;20.95;41.01
21879;BME280;27908;42.708;23.278;2023-03-25T13:07:23;65277.44;;;20.04;43.08
21879;BME280;27908;42.708;23.278;2023-03-25T13:10:12;65270.19;;;20.02;42.85
21879;BME280;27908;42.708;23.278;2023-03-25T13:12:40;65434.16;;;19.93;43.59
21879;BME280;27908;42.708;23.278;2023-03-25T13:15:20;65293.50;;;20.04;43.01
21879;BME280;27908;42.708;23.278;2023-03-25T13:20:29;65260.19;;;19.90;43.15
21879;BME280;27908;42.708;23.278;2023-03-25T13:22:59;65254.97;;;19.88;43.74
21879;BME280;27908;42.708;23.278;2023-03-25T13:28:16;65201.47;;;19.74;43.38
21879;BME280;27908;42.708;23.278;2023-03-25T13:30:45;65166.16;;;19.65;43.82
21879;BME280;27908;42.708;23.278;2023-03-25T13:33:25;65128.66;;;19.44;44.40
21879;BME280;27908;42.708;23.278;2023-03-25T13:36:07;65125.50;;;19.41;44.03
21879;BME280;27908;42.708;23.278;2023-03-25T13:38:39;65055.34;;;19.12;45.74
21879;BME280;27908;42.708;23.278;2023-03-25T13:41:44;65041.06;;;18.86;48.81
21879;BME280;27908;42.708;23.278;2023-03-25T13:46:51;64890.56;;;17.85;53.51
21879;BME280;27908;42.708;23.278;2023-03-25T13:49:36;64860.75;;;17.94;52.37
21879;BME280;27908;42.708;23.278;2023-03-25T13:52:06;64856.00;;;17.84;54.04
21879;BME280;27908;42.708;23.278;2023-03-25T13:54:33;64822.91;;;17.78;52.40
21879;BME280;27908;42.708;23.278;2023-03-25T14:11:26;64657.34;;;16.79;66.11
21879;BME280;27908;42.708;23.278;2023-03-25T14:14:02;64641.34;;;16.76;66.04
21879;BME280;27908;42.708;23.278;2023-03-25T14:16:34;64586.69;;;16.69;66.87
21879;BME280;27908;42.708;23.278;2023-03-25T14:19:09;64643.88;;;16.72;69.34
21879;BME280;27908;42.708;23.278;2023-03-25T14:24:19;64598.44;;;16.60;69.45
21879;BME280;27908;42.708;23.278;2023-03-25T14:26:50;64585.94;;;16.48;74.06
21879;BME280;27908;42.708;23.278;2023-03-25T14:34:44;64561.50;;;16.23;83.64
21879;BME280;27908;42.708;23.278;2023-03-25T14:37:29;64545.53;;;16.22;88.67
21879;BME280;27908;42.708;23.278;2023-03-25T14:39:57;64553.25;;;16.22;87.07
21879;BME280;27908;42.708;23.278;2023-03-25T14:42:39;64513.59;;;16.16;86.71
21879;BME280;27908;42.708;23.278;2023-03-25T14:48:04;64598.19;;;16.38;82.89
21879;BME280;27908;42.708;23.278;2023-03-25T14:50:34;64602.94;;;16.47;82.69
21879;BME280;27908;42.708;23.278;2023-03-25T14:53:03;64611.81;;;16.58;80.07
21879;BME280;27908;42.708;23.278;2023-03-25T14:55:32;64623.31;;;16.76;80.67
21879;BME280;27908;42.708;23.278;2023-03-25T14:57:59;64661.56;;;16.88;79.06
21879;BME280;27908;42.708;23.278;2023-03-25T15:00:30;64703.50;;;17.06;78.85
21879;BME280;27908;42.708;23.278;2023-03-25T15:03:08;64748.00;;;17.21;78.37
21879;BME280;27908;42.708;23.278;2023-03-25T15:05:36;64729.59;;;17.36;75.18
21879;BME280;27908;42.708;23.278;2023-03-25T15:10:40;64744.03;;;17.35;71.78
21879;BME280;27908;42.708;23.278;2023-03-25T15:21:25;64762.47;;;17.25;74.42
21879;BME280;27908;42.708;23.278;2023-03-25T15:24:05;64707.16;;;17.12;76.13
21879;BME280;27908;42.708;23.278;2023-03-25T15:56:36;64606.25;;;16.68;74.91
21879;BME280;27908;42.708;23.278;2023-03-25T15:59:11;64617.56;;;16.69;75.17
21879;BME280;27908;42.708;23.278;2023-03-25T16:01:45;64600.84;;;16.45;76.66
21879;BME280;27908;42.708;23.278;2023-03-25T16:06:59;64642.41;;;16.77;76.31
21879;BME280;27908;42.708;23.278;2023-03-25T16:09:27;64733.97;;;17.13;76.24